Time;durP1;ratioP1;P1;durP2;ratioP2;P2;SDS_P1;SDS_P2;PMS_P1;PMS_P2;Temp;Humidity;BMP_temperature;BMP_pressure;BME280_temperature;BME280_humidity;BME280_pressure;Samples;Min_cycle;Max_cycle;Signal;HPM_P1;HPM_P2
2021/12/16 00:01:40;;;;;;;1999.90;999.90;;;10.00;99.90;;;;;;4972784;28;20445;-69
2021/12/16 00:08:53;;;;;;;1999.90;999.90;;;10.10;99.90;;;;;;4972791;28;20401;-68
2021/12/16 00:31:02;;;;;;;1999.90;999.90;;;10.10;99.90;;;;;;4972267;28;20416;-69
2021/12/16 00:33:17;;;;;;;1999.90;999.90;;;10.20;99.90;;;;;;4972254;28;20421;-69
2021/12/16 00:35:45;;;;;;;1999.90;999.90;;;10.20;99.90;;;;;;4971791;28;20984;-68
2021/12/16 00:38:11;;;;;;;1999.90;999.90;;;10.30;99.90;;;;;;4972139;28;20787;-68
2021/12/16 00:40:40;;;;;;;1999.90;999.90;;;10.40;99.90;;;;;;4971931;28;20449;-68
2021/12/16 00:43:32;;;;;;;1999.90;999.90;;;10.30;99.90;;;;;;4972089;28;20168;-70
2021/12/16 00:48:37;;;;;;;1999.90;999.90;;;10.30;99.90;;;;;;4972047;28;20915;-69
2021/12/16 00:56:32;;;;;;;1999.90;999.90;;;10.30;99.90;;;;;;4971778;28;21025;-68
2021/12/16 00:58:59;;;;;;;1999.90;999.90;;;10.30;99.90;;;;;;4971923;28;20418;-69
2021/12/16 01:35:06;;;;;;;1999.90;999.90;;;10.20;99.90;;;;;;4974538;28;20412;-70
2021/12/16 01:38:20;;;;;;;1999.90;999.90;;;10.20;99.90;;;;;;4974930;28;20460;-70
2021/12/16 01:51:15;;;;;;;1999.90;999.90;;;10.20;99.90;;;;;;4971543;28;20416;-69
2021/12/16 01:59:01;;;;;;;1999.90;999.90;;;10.30;99.90;;;;;;4974059;28;20405;-69
2021/12/16 02:01:31;;;;;;;1999.90;999.90;;;10.30;99.90;;;;;;4973826;28;20437;-70
2021/12/16 02:04:02;;;;;;;1999.90;999.90;;;10.30;99.90;;;;;;4973993;28;20484;-69
2021/12/16 02:06:46;;;;;;;1999.90;999.90;;;10.40;99.90;;;;;;4973457;28;20893;-69
2021/12/16 02:09:25;;;;;;;1999.90;999.90;;;10.40;99.90;;;;;;4974029;28;20898;-69
2021/12/16 02:31:28;;;;;;;1999.90;999.90;;;10.30;99.90;;;;;;4948736;29;20916;-68
2021/12/16 02:36:43;;;;;;;1999.90;999.90;;;10.30;99.90;;;;;;4963746;28;20468;-68
2021/12/16 02:39:21;;;;;;;1999.90;999.90;;;10.30;99.90;;;;;;4970292;28;20407;-68
2021/12/16 02:41:49;;;;;;;1999.90;999.90;;;10.30;99.90;;;;;;4970104;28;20453;-69
2021/12/16 02:49:54;;;;;;;1999.90;999.90;;;10.20;99.90;;;;;;4951078;28;20421;-69
2021/12/16 02:52:22;;;;;;;1999.90;999.90;;;10.20;99.90;;;;;;4970110;28;20468;-69
2021/12/16 02:54:49;;;;;;;1999.90;999.90;;;10.20;99.90;;;;;;4969875;28;20411;-69
2021/12/16 02:57:14;;;;;;;1999.90;999.90;;;10.20;99.90;;;;;;4969962;28;20550;-69
2021/12/16 02:59:41;;;;;;;1999.90;999.90;;;10.20;99.90;;;;;;4970045;28;20463;-69
2021/12/16 03:02:14;;;;;;;1999.90;999.90;;;10.20;99.90;;;;;;4970171;28;20237;-69
2021/12/16 03:04:41;;;;;;;1999.90;999.90;;;10.20;99.90;;;;;;4969835;28;20399;-69
2021/12/16 03:07:10;;;;;;;1999.90;999.90;;;10.30;99.90;;;;;;4969923;28;20420;-69
2021/12/16 03:14:45;;;;;;;1999.90;999.90;;;10.20;99.90;;;;;;4977063;28;20657;-69
2021/12/16 03:20:33;;;;;;;1999.90;999.90;;;10.30;99.90;;;;;;4955296;29;20444;-69
2021/12/16 03:25:51;;;;;;;1999.90;999.90;;;10.20;99.90;;;;;;4964085;28;20419;-68
2021/12/16 03:39:02;;;;;;;1999.90;999.90;;;10.10;99.90;;;;;;4973228;28;20765;-69
2021/12/16 03:41:29;;;;;;;1999.90;999.90;;;10.20;99.90;;;;;;4973132;28;20809;-70
2021/12/16 03:43:58;;;;;;;1999.90;999.90;;;10.20;99.90;;;;;;4973008;28;20457;-69
2021/12/16 03:46:29;;;;;;;1999.90;999.90;;;10.20;99.90;;;;;;4972917;28;20408;-68
2021/12/16 03:49:14;;;;;;;1999.90;999.90;;;10.10;99.90;;;;;;4973134;28;20777;-68
2021/12/16 03:52:06;;;;;;;1999.90;999.90;;;10.10;99.90;;;;;;4973238;28;20431;-68
2021/12/16 03:54:37;;;;;;;1999.90;999.90;;;10.10;99.90;;;;;;4972691;28;20415;-68
2021/12/16 03:57:11;;;;;;;1999.90;999.90;;;10.10;99.90;;;;;;4972764;28;20470;-68
2021/12/16 03:59:39;;;;;;;1999.90;999.90;;;10.10;99.90;;;;;;4972815;28;20905;-69
2021/12/16 04:02:20;;;;;;;1999.90;999.90;;;10.00;99.90;;;;;;4972588;28;20425;-69
2021/12/16 04:04:47;;;;;;;1999.90;999.90;;;10.00;99.90;;;;;;4972285;28;20402;-69
2021/12/16 04:07:13;;;;;;;1999.90;999.90;;;10.00;99.90;;;;;;4972488;28;20407;-69
2021/12/16 04:09:39;;;;;;;1999.90;999.90;;;10.00;99.90;;;;;;4972494;28;20545;-69
2021/12/16 04:12:11;;;;;;;1999.90;999.90;;;10.10;99.90;;;;;;4972315;28;20240;-69
2021/12/16 04:14:39;;;;;;;1999.90;999.90;;;10.00;99.90;;;;;;4972401;28;20778;-69
2021/12/16 04:17:06;;;;;;;1999.90;999.90;;;10.10;99.90;;;;;;4972296;28;20455;-69
2021/12/16 04:19:34;;;;;;;1999.90;999.90;;;10.00;99.90;;;;;;4972284;28;20416;-69
2021/12/16 04:22:11;;;;;;;1999.90;999.90;;;10.00;99.90;;;;;;4972210;28;20436;-69
2021/12/16 04:24:39;;;;;;;1999.90;999.90;;;10.00;99.90;;;;;;4970746;28;20462;-69
2021/12/16 04:27:07;;;;;;;1999.90;999.90;;;10.00;99.90;;;;;;4972197;28;20503;-69
2021/12/16 04:29:33;;;;;;;1999.90;999.90;;;10.10;99.90;;;;;;4972145;28;20421;-69
2021/12/16 04:32:00;;;;;;;1999.90;999.90;;;10.10;99.90;;;;;;4972533;28;20793;-69
2021/12/16 04:34:26;;;;;;;1999.90;999.90;;;10.10;99.90;;;;;;4971830;28;20202;-69
2021/12/16 04:36:53;;;;;;;1999.90;999.90;;;10.10;99.90;;;;;;4971982;28;20533;-69
2021/12/16 04:39:23;;;;;;;1999.90;999.90;;;10.10;99.90;;;;;;4972025;28;20412;-69
2021/12/16 04:41:52;;;;;;;1999.90;999.90;;;10.10;99.90;;;;;;4971829;28;20504;-69
2021/12/16 04:44:18;;;;;;;1999.90;999.90;;;10.10;99.90;;;;;;4971795;28;20495;-69
2021/12/16 04:46:45;;;;;;;1999.90;999.90;;;10.00;99.90;;;;;;4971957;28;20857;-69
2021/12/16 04:49:12;;;;;;;1999.90;999.90;;;10.00;99.90;;;;;;4972208;28;20704;-69
2021/12/16 04:51:40;;;;;;;1999.90;999.90;;;10.00;99.90;;;;;;4975172;28;20447;-70
2021/12/16 04:54:08;;;;;;;1999.90;999.90;;;10.10;99.90;;;;;;4978396;28;20413;-69
2021/12/16 04:56:35;;;;;;;1999.90;999.90;;;10.10;99.90;;;;;;4977851;28;20456;-69
2021/12/16 04:59:03;;;;;;;1999.90;999.90;;;10.00;99.90;;;;;;4977901;28;20422;-69
2021/12/16 05:01:29;;;;;;;1999.90;999.90;;;10.00;99.90;;;;;;4977692;28;20926;-70
2021/12/16 05:03:56;;;;;;;1999.90;999.90;;;10.10;99.90;;;;;;4976009;28;20417;-67
2021/12/16 05:06:22;;;;;;;1999.90;999.90;;;10.20;99.90;;;;;;4974665;28;20179;-69
2021/12/16 05:08:48;;;;;;;1999.90;999.90;;;10.10;99.90;;;;;;4976024;28;20416;-69
2021/12/16 05:11:15;;;;;;;1999.90;999.90;;;10.20;99.90;;;;;;4975655;28;20262;-69
2021/12/16 05:13:42;;;;;;;1999.90;999.90;;;10.10;99.90;;;;;;4975549;28;20652;-69
2021/12/16 05:16:08;;;;;;;1999.90;999.90;;;10.10;99.90;;;;;;4975173;28;20462;-70
2021/12/16 05:18:36;;;;;;;1999.90;999.90;;;10.10;99.90;;;;;;4974906;28;20408;-69
2021/12/16 05:21:37;;;;;;;1999.90;999.90;;;10.10;99.90;;;;;;4973016;28;20852;-69
2021/12/16 05:26:45;;;;;;;1999.90;999.90;;;10.00;99.90;;;;;;4973087;28;20844;-69
2021/12/16 05:29:11;;;;;;;1999.90;999.90;;;9.90;99.90;;;;;;4973600;28;21027;-69
2021/12/16 05:31:37;;;;;;;1999.90;999.90;;;9.80;99.90;;;;;;4973419;28;20492;-68
2021/12/16 05:34:05;;;;;;;1999.90;999.90;;;9.80;99.90;;;;;;4973322;28;20447;-69
2021/12/16 05:36:30;;;;;;;1999.90;999.90;;;9.70;99.90;;;;;;4971555;28;20523;-69
2021/12/16 05:38:56;;;;;;;1999.90;999.90;;;9.70;99.90;;;;;;4973153;28;20442;-69
2021/12/16 05:41:23;;;;;;;1999.90;999.90;;;9.70;99.90;;;;;;4973025;28;20215;-69
2021/12/16 05:43:50;;;;;;;1999.90;999.90;;;9.60;99.90;;;;;;4972610;28;20408;-69
2021/12/16 05:46:18;;;;;;;1999.90;999.90;;;9.60;99.90;;;;;;4971016;28;20480;-69
2021/12/16 05:48:46;;;;;;;1999.90;999.90;;;9.50;99.90;;;;;;4972618;28;20420;-70
2021/12/16 05:51:16;;;;;;;1999.90;999.90;;;9.50;99.90;;;;;;4972718;28;20955;-70
2021/12/16 05:53:43;;;;;;;1999.90;999.90;;;9.50;99.90;;;;;;4972971;28;20413;-70
2021/12/16 05:56:09;;;;;;;1999.90;999.90;;;9.50;99.90;;;;;;4972483;28;20457;-70
2021/12/16 05:58:37;;;;;;;1999.90;999.90;;;9.50;99.90;;;;;;4972656;28;20635;-70
2021/12/16 06:01:14;;;;;;;1999.90;999.90;;;9.50;99.90;;;;;;4972383;28;20204;-69
2021/12/16 06:03:41;;;;;;;1999.90;999.90;;;9.60;99.90;;;;;;4972228;28;20410;-69
2021/12/16 06:06:07;;;;;;;1999.90;999.90;;;9.50;99.90;;;;;;4971555;28;20429;-69
2021/12/16 06:08:33;;;;;;;1999.90;999.90;;;9.40;99.90;;;;;;4972010;28;20406;-70
2021/12/16 06:13:39;;;;;;;1999.90;999.90;;;9.30;99.90;;;;;;4972541;28;20402;-70
2021/12/16 06:29:30;;;;;;;1999.90;999.90;;;9.10;99.90;;;;;;4971320;28;20915;-69
2021/12/16 06:31:56;;;;;;;1999.90;999.90;;;9.20;99.90;;;;;;4971471;28;20523;-69
2021/12/16 06:34:23;;;;;;;1999.90;999.90;;;9.00;99.90;;;;;;4971887;28;20179;-69
2021/12/16 06:36:49;;;;;;;1999.90;999.90;;;9.00;99.90;;;;;;4971291;28;20983;-70
2021/12/16 06:39:15;;;;;;;1999.90;999.90;;;8.90;99.90;;;;;;4971153;28;20445;-70
2021/12/16 06:41:41;;;;;;;1999.90;999.90;;;8.90;99.90;;;;;;4970716;28;20219;-69
2021/12/16 06:44:16;;;;;;;1999.90;999.90;;;8.90;99.90;;;;;;4970709;28;20642;-70
2021/12/16 06:46:43;;;;;;;1999.90;999.90;;;8.90;99.90;;;;;;4971127;28;20883;-70
2021/12/16 06:49:11;;;;;;;1999.90;999.90;;;9.00;99.90;;;;;;4974325;28;20403;-70
2021/12/16 06:51:46;;;;;;;1999.90;999.90;;;8.90;99.90;;;;;;4974914;28;20915;-70
2021/12/16 06:54:19;;;;;;;1999.90;999.90;;;8.90;99.90;;;;;;4975171;28;20421;-70
2021/12/16 06:59:27;;;;;;;1999.90;999.90;;;9.00;99.90;;;;;;4975141;28;20960;-70
2021/12/16 07:02:08;;;;;;;1999.90;999.90;;;9.00;99.90;;;;;;4975356;28;20431;-70
2021/12/16 07:04:36;;;;;;;1999.90;999.90;;;9.00;99.90;;;;;;4975182;28;20409;-70
2021/12/16 07:07:02;;;;;;;1999.90;999.90;;;9.00;99.90;;;;;;4975192;28;20412;-69
2021/12/16 07:09:28;;;;;;;1999.90;999.90;;;9.10;99.90;;;;;;4975241;28;20412;-69
2021/12/16 07:11:57;;;;;;;1999.90;999.90;;;9.10;99.90;;;;;;4973628;28;20451;-69
2021/12/16 07:14:35;;;;;;;1999.90;999.90;;;9.10;99.90;;;;;;4973271;28;20179;-69
2021/12/16 07:17:15;;;;;;;1999.90;999.90;;;9.20;99.90;;;;;;4973372;28;20450;-69
2021/12/16 07:19:42;;;;;;;1999.90;999.90;;;9.20;99.90;;;;;;4973389;28;20411;-69
2021/12/16 07:22:10;;;;;;;1999.90;999.90;;;9.20;99.90;;;;;;4973142;28;20513;-69
2021/12/16 07:24:36;;;;;;;1999.90;999.90;;;9.20;99.90;;;;;;4973053;28;20403;-70
2021/12/16 07:27:03;;;;;;;1999.90;999.90;;;9.20;99.90;;;;;;4973311;28;20750;-69
2021/12/16 07:29:29;;;;;;;1999.90;999.90;;;9.10;99.90;;;;;;4973335;28;20409;-69
2021/12/16 07:31:55;;;;;;;1999.90;999.90;;;9.20;99.90;;;;;;4973059;28;20485;-69
2021/12/16 07:34:21;;;;;;;1999.90;999.90;;;9.10;99.90;;;;;;4972677;28;20195;-69
2021/12/16 07:36:47;;;;;;;1999.90;999.90;;;9.20;99.90;;;;;;4973065;28;20802;-68
2021/12/16 07:39:16;;;;;;;1999.90;999.90;;;9.20;99.90;;;;;;4972942;28;20401;-69
2021/12/16 07:41:46;;;;;;;1999.90;999.90;;;9.20;99.90;;;;;;4973049;28;20953;-68
2021/12/16 07:44:13;;;;;;;1999.90;999.90;;;9.30;99.90;;;;;;4972624;28;20465;-69
2021/12/16 07:46:45;;;;;;;1999.90;999.90;;;9.30;99.90;;;;;;4972843;28;20422;-69
2021/12/16 07:49:17;;;;;;;1999.90;999.90;;;9.30;99.90;;;;;;4972823;28;20767;-70
2021/12/16 07:51:43;;;;;;;1999.90;999.90;;;9.20;99.90;;;;;;4972704;28;20854;-69
2021/12/16 07:54:10;;;;;;;1999.90;999.90;;;9.10;99.90;;;;;;4972435;28;20461;-70
2021/12/16 07:56:36;;;;;;;1999.90;999.90;;;9.00;99.90;;;;;;4972746;28;20475;-69
2021/12/16 07:59:05;;;;;;;1999.90;999.90;;;8.90;99.90;;;;;;4972458;28;20415;-70
2021/12/16 08:01:31;;;;;;;1999.90;999.90;;;9.00;99.90;;;;;;4972621;28;20186;-68
2021/12/16 08:03:57;;;;;;;1999.90;999.90;;;9.00;99.90;;;;;;4972525;28;20407;-69
2021/12/16 08:06:26;;;;;;;1999.90;999.90;;;9.00;99.90;;;;;;4972375;28;20976;-69
2021/12/16 08:08:56;;;;;;;1999.90;999.90;;;9.10;99.90;;;;;;4972524;28;20409;-69
2021/12/16 08:11:22;;;;;;;1999.90;999.90;;;9.10;99.90;;;;;;4972519;28;20518;-70
2021/12/16 08:13:48;;;;;;;1999.90;999.90;;;9.10;99.90;;;;;;4972350;28;20497;-69
2021/12/16 08:16:13;;;;;;;1999.90;999.90;;;9.20;99.90;;;;;;4972268;28;20549;-69
2021/12/16 08:18:39;;;;;;;1999.90;999.90;;;9.20;99.90;;;;;;4972397;28;20630;-69
2021/12/16 08:21:05;;;;;;;1999.90;999.90;;;9.20;99.90;;;;;;4972264;28;20237;-69
2021/12/16 08:23:32;;;;;;;1999.90;999.90;;;9.30;99.90;;;;;;4972324;28;20181;-69
2021/12/16 08:25:58;;;;;;;1999.90;999.90;;;9.30;99.90;;;;;;4972082;28;20459;-69
2021/12/16 08:28:25;;;;;;;1999.90;999.90;;;9.30;99.90;;;;;;4972103;28;20419;-69
2021/12/16 08:30:51;;;;;;;1999.90;999.90;;;9.40;99.90;;;;;;4972191;28;20447;-69
2021/12/16 08:33:19;;;;;;;1999.90;999.90;;;9.40;99.90;;;;;;4972308;28;20533;-70
2021/12/16 08:35:48;;;;;;;1999.90;999.90;;;9.40;99.90;;;;;;4971681;28;20500;-70
2021/12/16 08:38:18;;;;;;;1999.90;999.90;;;9.40;99.90;;;;;;4972091;28;20420;-70
2021/12/16 08:40:46;;;;;;;1999.90;999.90;;;9.50;99.90;;;;;;4971931;28;20455;-70
2021/12/16 08:43:12;;;;;;;1999.90;999.90;;;9.50;99.90;;;;;;4971961;28;20411;-70
2021/12/16 08:45:39;;;;;;;1999.90;999.90;;;9.50;99.90;;;;;;4971715;28;20432;-69
2021/12/16 08:48:06;;;;;;;1999.90;999.90;;;9.50;99.90;;;;;;4972050;28;20479;-69
2021/12/16 08:50:40;;;;;;;1999.90;999.90;;;9.50;99.90;;;;;;4971763;28;20425;-69
2021/12/16 08:53:07;;;;;;;1999.90;999.90;;;9.60;99.90;;;;;;4971982;28;20928;-69
2021/12/16 08:55:35;;;;;;;1999.90;999.90;;;9.70;99.90;;;;;;4971521;28;20751;-69
2021/12/16 08:58:03;;;;;;;1999.90;999.90;;;9.70;99.90;;;;;;4972028;28;20412;-69
2021/12/16 09:00:33;;;;;;;1999.90;999.90;;;9.80;99.90;;;;;;4971665;28;20415;-69
2021/12/16 09:02:58;;;;;;;1999.90;999.90;;;9.90;99.90;;;;;;4971837;28;20856;-69
2021/12/16 09:05:25;;;;;;;1999.90;999.90;;;9.90;99.90;;;;;;4971388;28;20494;-69
2021/12/16 09:07:52;;;;;;;1999.90;999.90;;;10.00;99.90;;;;;;4971589;28;20167;-69
2021/12/16 09:10:23;;;;;;;1999.90;999.90;;;10.10;99.90;;;;;;4970790;28;20412;-69
2021/12/16 09:13:02;;;;;;;1999.90;999.90;;;10.20;99.90;;;;;;4971598;28;20407;-69
2021/12/16 09:15:31;;;;;;;1999.90;999.90;;;10.20;99.90;;;;;;4971248;28;20408;-69
2021/12/16 09:17:57;;;;;;;1999.90;999.90;;;10.30;99.90;;;;;;4971579;28;20911;-69
2021/12/16 09:20:24;;;;;;;1999.90;999.90;;;10.30;99.90;;;;;;4971236;28;20415;-69
2021/12/16 09:22:50;;;;;;;1999.90;999.90;;;10.30;99.90;;;;;;4971460;28;20172;-69
2021/12/16 09:25:16;;;;;;;1999.90;999.90;;;10.30;99.90;;;;;;4971085;28;20496;-69
2021/12/16 09:27:42;;;;;;;1999.90;999.90;;;10.20;99.90;;;;;;4971356;28;20407;-69
2021/12/16 09:30:11;;;;;;;1999.90;999.90;;;10.20;99.90;;;;;;4971304;28;20411;-69
2021/12/16 09:32:37;;;;;;;1999.90;999.90;;;10.20;99.90;;;;;;4967437;28;20962;-70
2021/12/16 09:35:05;;;;;;;1999.90;999.90;;;10.20;99.90;;;;;;4964753;28;21107;-70
2021/12/16 09:37:30;;;;;;;1999.90;999.90;;;10.30;99.90;;;;;;4953048;28;20556;-70
2021/12/16 09:39:56;;;;;;;1999.90;999.90;;;10.30;99.90;;;;;;4950880;28;20508;-69
2021/12/16 09:42:25;;;;;;;1999.90;999.90;;;10.40;99.90;;;;;;4951426;28;20202;-69
2021/12/16 09:44:53;;;;;;;1999.90;999.90;;;10.50;99.90;;;;;;4951119;28;20976;-68
2021/12/16 09:47:21;;;;;;;1999.90;999.90;;;10.60;99.90;;;;;;4951128;28;20406;-69
2021/12/16 09:49:48;;;;;;;1999.90;999.90;;;10.70;99.90;;;;;;4952492;28;20747;-68
2021/12/16 09:52:13;;;;;;;1999.90;999.90;;;10.80;99.90;;;;;;4952610;28;20495;-69
2021/12/16 09:54:42;;;;;;;1999.90;999.90;;;10.80;99.90;;;;;;4954085;28;20409;-69
2021/12/16 09:57:08;;;;;;;1999.90;999.90;;;10.90;99.90;;;;;;4952071;28;20209;-71
2021/12/16 09:59:35;;;;;;;1999.90;999.90;;;11.10;99.90;;;;;;4951439;28;20425;-70
2021/12/16 10:02:07;;;;;;;1999.90;999.90;;;11.10;99.90;;;;;;4950930;28;20426;-71
2021/12/16 10:04:34;;;;;;;1999.90;999.90;;;11.20;99.90;;;;;;4951352;28;20383;-71
2021/12/16 10:07:05;;;;;;;1999.90;999.90;;;11.30;99.90;;;;;;4951251;28;20410;-70
2021/12/16 10:09:31;;;;;;;1999.90;999.90;;;11.40;99.90;;;;;;4951126;28;20497;-70
2021/12/16 10:12:03;;;;;;;1999.90;999.90;;;11.50;99.90;;;;;;4951409;28;20504;-70
2021/12/16 10:19:40;;;;;;;1999.90;999.90;;;11.70;99.90;;;;;;4951373;29;20186;-70
2021/12/16 10:22:17;;;;;;;1999.90;999.90;;;11.90;99.90;;;;;;4951029;29;20435;-70
2021/12/16 10:24:42;;;;;;;1999.90;999.90;;;12.00;99.90;;;;;;4950795;28;20174;-70
2021/12/16 10:27:16;;;;;;;1999.90;999.90;;;12.10;99.90;;;;;;4950795;28;20471;-70
2021/12/16 10:29:49;;;;;;;1999.90;999.90;;;12.30;99.90;;;;;;4951088;28;20182;-70
2021/12/16 10:32:39;;;;;;;1999.90;999.90;;;12.30;99.90;;;;;;4950747;28;20507;-70
2021/12/16 10:35:17;;;;;;;1999.90;999.90;;;12.40;99.90;;;;;;4950626;28;20536;-70
2021/12/16 10:38:04;;;;;;;1999.90;999.90;;;12.60;99.90;;;;;;4950261;29;20530;-70
2021/12/16 10:40:43;;;;;;;1999.90;999.90;;;12.70;99.90;;;;;;4950294;29;20545;-70
2021/12/16 10:43:14;;;;;;;1999.90;999.90;;;12.80;99.90;;;;;;4951137;28;20387;-70
2021/12/16 10:45:47;;;;;;;1999.90;999.90;;;12.80;99.90;;;;;;4950515;29;20411;-70
2021/12/16 10:48:16;;;;;;;1999.90;999.90;;;12.90;99.90;;;;;;4950386;28;20432;-70
2021/12/16 10:51:05;;;;;;;1999.90;999.90;;;12.70;99.90;;;;;;4950907;28;20796;-70
2021/12/16 10:53:58;;;;;;;1999.90;999.90;;;12.50;99.90;;;;;;4950652;28;20400;-70
2021/12/16 10:56:32;;;;;;;1999.90;999.90;;;12.60;99.90;;;;;;4950052;28;20458;-70
2021/12/16 10:59:19;;;;;;;1999.90;999.90;;;12.50;99.90;;;;;;4950651;28;20433;-70
2021/12/16 11:01:56;;;;;;;1999.90;999.90;;;12.60;99.90;;;;;;4949847;28;20811;-70
2021/12/16 11:04:25;;;;;;;1999.90;999.90;;;12.70;99.90;;;;;;4950320;28;20407;-70
2021/12/16 11:07:14;;;;;;;1999.90;999.90;;;12.70;99.90;;;;;;4950486;28;20413;-70
2021/12/16 11:09:53;;;;;;;1999.90;999.90;;;12.60;99.90;;;;;;4950145;28;20416;-70
2021/12/16 11:12:30;;;;;;;1999.90;999.90;;;12.70;99.90;;;;;;4950841;28;21017;-70
2021/12/16 11:15:06;;;;;;;1999.90;999.90;;;13.00;99.90;;;;;;4949949;28;20438;-70
2021/12/16 11:17:38;;;;;;;1999.90;999.90;;;13.40;99.90;;;;;;4949603;28;21011;-71
2021/12/16 11:20:07;;;;;;;1999.90;999.90;;;13.90;99.90;;;;;;4950438;28;20396;-71
2021/12/16 11:22:37;;;;;;;1999.90;999.90;;;14.30;99.90;;;;;;4950389;28;20458;-70
2021/12/16 11:25:25;;;;;;;1999.90;999.90;;;14.70;99.90;;;;;;4949699;28;20411;-70
2021/12/16 11:27:55;;;;;;;1999.90;999.90;;;15.30;99.90;;;;;;4949757;29;20496;-70
2021/12/16 11:30:35;;;;;;;1999.90;999.90;;;15.80;99.90;;;;;;4950465;28;20417;-70
2021/12/16 11:33:06;;;;;;;1999.90;999.90;;;16.10;99.90;;;;;;4950719;28;20390;-71
2021/12/16 11:35:36;;;;;;;1999.90;999.90;;;16.60;99.90;;;;;;4953312;28;20403;-71
2021/12/16 11:38:13;;;;;;;1999.90;999.90;;;17.10;99.90;;;;;;4952728;28;20394;-71
2021/12/16 11:40:52;;;;;;;1999.90;999.90;;;17.70;99.90;;;;;;4953499;28;20490;-71
2021/12/16 11:43:29;;;;;;;1999.90;999.90;;;18.30;99.90;;;;;;4953761;29;20493;-71
2021/12/16 11:45:54;;;;;;;1999.90;999.90;;;18.80;99.90;;;;;;4952773;28;20403;-71
2021/12/16 11:48:29;;;;;;;1999.90;999.90;;;18.90;99.90;;;;;;4953312;28;20935;-71
2021/12/16 11:51:06;;;;;;;1999.90;999.90;;;18.70;99.90;;;;;;4953715;28;20272;-71
2021/12/16 11:53:48;;;;;;;1999.90;999.90;;;18.30;99.90;;;;;;4953202;28;20391;-71
2021/12/16 11:56:14;;;;;;;1999.90;999.90;;;17.80;99.90;;;;;;4952796;28;20443;-71
2021/12/16 11:58:42;;;;;;;1999.90;999.90;;;17.00;99.90;;;;;;4952778;28;20407;-71
2021/12/16 12:01:26;;;;;;;1999.90;999.90;;;16.40;99.90;;;;;;4952710;28;20431;-71
2021/12/16 12:03:59;;;;;;;1999.90;999.90;;;15.40;99.90;;;;;;4953444;28;20396;-71
2021/12/16 12:06:28;;;;;;;1999.90;999.90;;;14.80;99.90;;;;;;4953110;29;20414;-71
2021/12/16 12:08:56;;;;;;;1999.90;999.90;;;14.40;99.90;;;;;;4952719;28;20502;-70
2021/12/16 12:11:27;;;;;;;1999.90;999.90;;;13.80;99.90;;;;;;4953102;29;20894;-70
2021/12/16 12:13:57;;;;;;;1999.90;999.90;;;13.40;99.90;;;;;;4953339;28;20403;-71
2021/12/16 12:16:42;;;;;;;1999.90;999.90;;;13.10;99.90;;;;;;4952227;28;20874;-70
2021/12/16 12:19:09;;;;;;;1999.90;999.90;;;12.80;99.90;;;;;;4952974;28;20403;-70
2021/12/16 12:21:38;;;;;;;1999.90;999.90;;;12.60;99.90;;;;;;4952826;29;20430;-70
2021/12/16 12:24:20;;;;;;;1999.90;999.90;;;12.40;99.90;;;;;;4952196;28;21211;-70
2021/12/16 12:26:56;;;;;;;1999.90;999.90;;;12.20;99.90;;;;;;4952765;28;20414;-70
2021/12/16 12:29:27;;;;;;;1999.90;999.90;;;12.00;99.90;;;;;;4953074;28;20397;-70
2021/12/16 12:31:58;;;;;;;1999.90;999.90;;;11.90;99.90;;;;;;4952421;28;21196;-70
2021/12/16 12:34:24;;;;;;;1999.90;999.90;;;11.80;99.90;;;;;;4952452;28;20418;-70
2021/12/16 12:36:52;;;;;;;1999.90;999.90;;;11.70;99.90;;;;;;4952159;28;20453;-70
2021/12/16 12:39:20;;;;;;;1999.90;999.90;;;11.70;99.90;;;;;;4952417;28;20405;-70
2021/12/16 12:41:46;;;;;;;1999.90;999.90;;;11.60;99.90;;;;;;4952500;28;20499;-70
2021/12/16 12:44:13;;;;;;;1999.90;999.90;;;11.60;99.90;;;;;;4952465;28;20408;-70
2021/12/16 12:46:40;;;;;;;1999.90;999.90;;;11.60;99.90;;;;;;4950772;28;20417;-70
2021/12/16 12:49:11;;;;;;;1999.90;999.90;;;11.50;99.90;;;;;;4952715;28;20395;-70
2021/12/16 12:51:49;;;;;;;1999.90;999.90;;;11.50;99.90;;;;;;4952677;28;20441;-70
2021/12/16 12:54:27;;;;;;;1999.90;999.90;;;11.50;99.90;;;;;;4951916;28;20749;-70
2021/12/16 12:56:56;;;;;;;1999.90;999.90;;;11.50;99.90;;;;;;4950707;29;20518;-70
2021/12/16 12:59:33;;;;;;;1999.90;999.90;;;11.60;99.90;;;;;;4951701;28;20411;-70
2021/12/16 13:01:59;;;;;;;1999.90;999.90;;;11.60;99.90;;;;;;4952314;28;20768;-70
2021/12/16 13:04:31;;;;;;;1999.90;999.90;;;11.70;99.90;;;;;;4952150;28;20469;-68
2021/12/16 13:07:10;;;;;;;1999.90;999.90;;;11.80;99.90;;;;;;4952401;28;20885;-69
2021/12/16 13:09:45;;;;;;;1999.90;999.90;;;11.90;99.90;;;;;;4952548;29;20898;-69
2021/12/16 13:12:31;;;;;;;1999.90;999.90;;;12.10;99.90;;;;;;4953995;29;20943;-69
2021/12/16 13:15:11;;;;;;;1999.90;999.90;;;12.20;99.90;;;;;;4952653;28;20457;-70
2021/12/16 13:32:04;;;;;;;1999.90;999.90;;;12.10;99.90;;;;;;4984264;28;20441;-69
2021/12/16 13:34:43;;;;;;;1999.90;999.90;;;11.90;99.90;;;;;;4952159;28;20497;-70
2021/12/16 13:37:22;;;;;;;1999.90;999.90;;;11.70;99.90;;;;;;4951758;28;20446;-70
2021/12/16 13:39:53;;;;;;;1999.90;999.90;;;11.60;99.90;;;;;;4951832;28;20479;-70
2021/12/16 13:42:19;;;;;;;1999.90;999.90;;;11.50;99.90;;;;;;4952241;28;20498;-70
2021/12/16 13:44:56;;;;;;;1999.90;999.90;;;11.50;99.90;;;;;;4951341;28;20414;-70
2021/12/16 14:04:57;;;;;;;1999.90;999.90;;;11.70;99.90;;;;;;4951414;28;20784;-69
2021/12/16 14:07:54;;;;;;;1999.90;999.90;;;11.70;99.90;;;;;;4950484;28;20612;-70
2021/12/16 14:10:29;;;;;;;1999.90;999.90;;;11.70;99.90;;;;;;4951615;28;20449;-69
2021/12/16 14:25:04;;;;;;;1999.90;999.90;;;12.20;99.90;;;;;;4950977;29;20436;-70
2021/12/16 14:38:24;;;;;;;1999.90;999.90;;;12.40;99.90;;;;;;4950908;29;20482;-70
2021/12/16 14:41:08;;;;;;;1999.90;999.90;;;12.40;99.90;;;;;;4950694;29;20508;-71
2021/12/16 14:43:53;;;;;;;1999.90;999.90;;;12.40;99.90;;;;;;4950396;28;20414;-71
2021/12/16 14:46:26;;;;;;;1999.90;999.90;;;12.40;99.90;;;;;;4950739;28;20411;-71
2021/12/16 14:48:52;;;;;;;1999.90;999.90;;;12.40;99.90;;;;;;4950833;28;20414;-71
2021/12/16 14:51:18;;;;;;;1999.90;999.90;;;12.40;99.90;;;;;;4950342;28;20943;-70
2021/12/16 14:53:47;;;;;;;1999.90;999.90;;;12.40;99.90;;;;;;4950769;28;20569;-70
2021/12/16 14:56:18;;;;;;;1999.90;999.90;;;12.30;99.90;;;;;;4950205;28;20565;-70
2021/12/16 14:58:51;;;;;;;1999.90;999.90;;;12.30;99.90;;;;;;4949751;28;20413;-71
2021/12/16 15:01:23;;;;;;;1999.90;999.90;;;12.30;99.90;;;;;;4950411;28;20434;-70
2021/12/16 15:03:50;;;;;;;1999.90;999.90;;;12.30;99.90;;;;;;4950926;28;20415;-71
2021/12/16 15:06:22;;;;;;;1999.90;999.90;;;12.20;99.90;;;;;;4949594;28;20417;-70
2021/12/16 15:09:06;;;;;;;1999.90;999.90;;;12.20;99.90;;;;;;4951835;28;20446;-71
2021/12/16 15:12:33;;;;;;;1999.90;999.90;;;12.20;99.90;;;;;;4954183;28;20446;-70
2021/12/16 15:17:21;;;;;;;1999.90;999.90;;;12.20;99.90;;;;;;4953295;28;20847;-70
2021/12/16 15:37:10;;;;;;;1999.90;999.90;;;12.10;99.90;;;;;;4952526;29;20978;-71
2021/12/16 15:45:17;;;;;;;1999.90;999.90;;;12.10;99.90;;;;;;4953402;29;20414;-70
2021/12/16 15:47:46;;;;;;;1999.90;999.90;;;12.00;99.90;;;;;;4953394;29;20981;-70
2021/12/16 15:50:15;;;;;;;1999.90;999.90;;;12.00;99.90;;;;;;4952840;28;20418;-70
2021/12/16 15:52:52;;;;;;;1999.90;999.90;;;12.00;99.90;;;;;;4953555;28;20508;-70
2021/12/16 15:55:28;;;;;;;1999.90;999.90;;;12.00;99.90;;;;;;4953329;28;20418;-70
2021/12/16 15:57:59;;;;;;;1999.90;999.90;;;12.00;99.90;;;;;;4952441;28;20473;-70
2021/12/16 16:00:26;;;;;;;1999.90;999.90;;;12.00;99.90;;;;;;4953177;28;20395;-71
2021/12/16 16:02:57;;;;;;;1999.90;999.90;;;11.90;99.90;;;;;;4953133;29;20417;-71
2021/12/16 16:05:22;;;;;;;1999.90;999.90;;;11.80;99.90;;;;;;4952489;28;20573;-70
2021/12/16 16:07:57;;;;;;;1999.90;999.90;;;11.70;99.90;;;;;;4953117;28;20501;-71
2021/12/16 16:10:22;;;;;;;1999.90;999.90;;;11.70;99.90;;;;;;4953118;28;20180;-71
2021/12/16 16:12:48;;;;;;;1999.90;999.90;;;11.60;99.90;;;;;;4952707;29;20784;-71
2021/12/16 16:15:20;;;;;;;1999.90;999.90;;;11.50;99.90;;;;;;4952587;29;20182;-70
2021/12/16 16:20:48;;;;;;;1999.90;999.90;;;11.40;99.90;;;;;;4951252;28;20442;-70